Time;durP1;ratioP1;P1;durP2;ratioP2;P2;SDS_P1;SDS_P2;PMS_P1;PMS_P2;Temp;Humidity;BMP_temperature;BMP_pressure;BME280_temperature;BME280_humidity;BME280_pressure;Samples;Min_cycle;Max_cycle;Signal;HPM_P1;HPM_P2
2022/11/17 00:01:09;;;;;;;3.05;2.30;;;;;;;;;;6177708;23;20791;-57
2022/11/17 00:03:43;;;;;;;2.55;2.00;;;;;;;;;;6175619;23;20388;-46
2022/11/17 00:06:10;;;;;;;3.28;1.73;;;;;;;;;;6177913;23;20100;-52
2022/11/17 00:08:37;;;;;;;3.45;2.30;;;;;;;;;;6179909;23;20437;-52
2022/11/17 00:11:11;;;;;;;3.30;2.47;;;;;;;;;;6178629;23;20029;-53
2022/11/17 00:16:31;;;;;;;3.78;2.50;;;;;;;;;;6176720;23;20031;-54
2022/11/17 00:21:51;;;;;;;3.75;2.25;;;;;;;;;;6178577;23;20471;-54
2022/11/17 00:24:19;;;;;;;3.70;2.55;;;;;;;;;;6179492;23;20132;-60
2022/11/17 00:27:02;;;;;;;5.35;2.50;;;;;;;;;;6178922;23;20025;-60
2022/11/17 00:29:30;;;;;;;3.00;2.30;;;;;;;;;;6178792;23;20116;-60
2022/11/17 00:34:52;;;;;;;3.67;2.58;;;;;;;;;;6178853;23;20029;-63
2022/11/17 00:37:28;;;;;;;5.00;2.20;;;;;;;;;;6177669;23;20210;-60
2022/11/17 00:39:55;;;;;;;3.85;1.90;;;;;;;;;;6179373;23;20032;-58
2022/11/17 00:42:29;;;;;;;4.47;2.63;;;;;;;;;;6177677;23;20027;-49
2022/11/17 00:45:02;;;;;;;1.85;1.50;;;;;;;;;;6179811;23;20024;-45
2022/11/17 00:47:37;;;;;;;2.60;1.65;;;;;;;;;;6178280;23;20035;-45
2022/11/17 00:50:04;;;;;;;2.00;1.75;;;;;;;;;;6177731;23;20470;-46
2022/11/17 00:52:31;;;;;;;3.42;1.98;;;;;;;;;;6177577;23;20025;-49
2022/11/17 00:55:05;;;;;;;2.78;1.80;;;;;;;;;;6178996;23;20108;-47
2022/11/17 00:57:32;;;;;;;;;;;;;;;;;;6180002;23;20021;-54
2022/11/17 01:00:06;;;;;;;3.45;2.17;;;;;;;;;;6178642;23;19951;-60
2022/11/17 01:02:33;;;;;;;;;;;;;;;;;;6179067;23;20025;-46
2022/11/17 01:05:00;;;;;;;3.28;2.20;;;;;;;;;;6179158;23;19920;-46
2022/11/17 01:07:34;;;;;;;2.58;1.88;;;;;;;;;;6178684;23;20047;-52
2022/11/17 01:10:01;;;;;;;1.85;1.48;;;;;;;;;;6177905;23;20044;-46
2022/11/17 01:12:35;;;;;;;2.65;2.20;;;;;;;;;;6179423;23;20443;-46
2022/11/17 01:15:02;;;;;;;2.22;2.00;;;;;;;;;;6178819;23;20028;-46
2022/11/17 01:17:29;;;;;;;2.40;2.10;;;;;;;;;;6178346;23;20025;-66
2022/11/17 01:20:03;;;;;;;3.58;1.95;;;;;;;;;;6178176;23;20017;-60
2022/11/17 01:22:30;;;;;;;;;;;;;;;;;;6178367;23;20025;-65
2022/11/17 01:25:04;;;;;;;2.30;1.88;;;;;;;;;;6177750;23;19916;-64
2022/11/17 01:27:31;;;;;;;2.67;2.00;;;;;;;;;;6178238;23;20035;-65
2022/11/17 01:30:05;;;;;;;2.15;1.90;;;;;;;;;;6178799;23;20120;-65
2022/11/17 01:32:32;;;;;;;;;;;;;;;;;;6177859;23;20549;-66
2022/11/17 01:34:59;;;;;;;2.30;1.80;;;;;;;;;;6152285;23;19959;-66
2022/11/17 01:37:46;;;;;;;2.85;1.92;;;;;;;;;;6179337;23;20025;-66
2022/11/17 01:40:14;;;;;;;1.95;1.70;;;;;;;;;;6178385;23;20545;-62
2022/11/17 01:42:48;;;;;;;2.80;1.95;;;;;;;;;;6177610;23;20052;-63
2022/11/17 01:45:15;;;;;;;;;;;;;;;;;;6178762;23;20036;-64
2022/11/17 01:47:52;;;;;;;2.80;1.90;;;;;;;;;;6176539;23;19927;-63
2022/11/17 01:50:31;;;;;;;3.50;1.90;;;;;;;;;;6179057;23;20245;-63
2022/11/17 01:53:07;;;;;;;2.25;1.70;;;;;;;;;;6179120;23;20100;-63
2022/11/17 01:55:41;;;;;;;2.40;1.80;;;;;;;;;;6176732;23;20100;-64
2022/11/17 01:58:16;;;;;;;4.03;1.60;;;;;;;;;;6177962;23;20060;-63
2022/11/17 02:00:43;;;;;;;2.25;1.90;;;;;;;;;;6176420;23;20053;-45
2022/11/17 02:03:17;;;;;;;4.35;2.00;;;;;;;;;;6174456;23;20045;-47
2022/11/17 02:05:44;;;;;;;2.55;2.20;;;;;;;;;;6177386;23;20462;-51
2022/11/17 02:08:20;;;;;;;2.40;1.98;;;;;;;;;;6177986;23;20104;-46
2022/11/17 02:10:54;;;;;;;2.50;1.98;;;;;;;;;;6176953;23;20025;-49
2022/11/17 02:13:29;;;;;;;1.42;1.00;;;;;;;;;;6177370;23;20025;-50
2022/11/17 02:15:56;;;;;;;2.15;1.60;;;;;;;;;;6175888;23;20039;-61
2022/11/17 02:18:23;;;;;;;2.30;1.88;;;;;;;;;;6177317;23;20024;-60
2022/11/17 02:21:10;;;;;;;3.78;1.65;;;;;;;;;;6175858;23;20023;-61
2022/11/17 02:23:37;;;;;;;2.33;1.60;;;;;;;;;;6177520;23;20096;-61
2022/11/17 02:26:32;;;;;;;3.35;1.83;;;;;;;;;;6176878;23;20021;-61
2022/11/17 02:29:14;;;;;;;2.60;2.00;;;;;;;;;;6177778;23;20025;-60
2022/11/17 02:31:48;;;;;;;2.92;2.33;;;;;;;;;;6178483;23;20021;-61
2022/11/17 02:34:44;;;;;;;1.77;1.40;;;;;;;;;;6177977;23;20092;-52
2022/11/17 02:37:32;;;;;;;1.95;1.75;;;;;;;;;;6050176;23;20028;-63
2022/11/17 02:40:06;;;;;;;2.65;2.05;;;;;;;;;;6146200;23;20108;-63
2022/11/17 02:45:36;;;;;;;3.15;2.08;;;;;;;;;;6148760;23;20116;-63
2022/11/17 02:48:12;;;;;;;3.20;1.73;;;;;;;;;;6150333;23;20869;-63
2022/11/17 02:50:40;;;;;;;2.17;1.92;;;;;;;;;;6147932;23;20021;-63
2022/11/17 02:53:14;;;;;;;2.92;2.10;;;;;;;;;;6125594;23;20107;-50
2022/11/17 02:55:47;;;;;;;3.78;2.35;;;;;;;;;;6149320;23;20045;-57
2022/11/17 02:58:22;;;;;;;3.42;2.50;;;;;;;;;;6150505;23;20025;-58
2022/11/17 03:01:03;;;;;;;4.35;2.90;;;;;;;;;;6149570;23;20021;-56
2022/11/17 03:03:55;;;;;;;2.27;1.63;;;;;;;;;;6149682;23;20029;-57
2022/11/17 03:06:32;;;;;;;5.45;2.67;;;;;;;;;;6150375;23;20021;-56
2022/11/17 03:09:18;;;;;;;3.30;2.72;;;;;;;;;;6151086;23;20028;-57
2022/11/17 03:12:10;;;;;;;6.40;2.83;;;;;;;;;;6148638;23;20494;-54
2022/11/17 03:14:41;;;;;;;4.20;2.40;;;;;;;;;;6149975;23;20489;-60
2022/11/17 03:17:20;;;;;;;4.05;2.95;;;;;;;;;;6151041;23;20100;-56
2022/11/17 03:19:51;;;;;;;6.40;2.60;;;;;;;;;;6148091;23;20029;-60
2022/11/17 03:22:57;;;;;;;4.45;2.80;;;;;;;;;;6149485;23;20104;-59
2022/11/17 03:25:26;;;;;;;3.22;2.38;;;;;;;;;;6084869;23;20115;-59
2022/11/17 03:28:02;;;;;;;3.78;2.58;;;;;;;;;;6124934;23;20040;-59
2022/11/17 03:30:30;;;;;;;3.05;2.30;;;;;;;;;;6149623;23;20028;-66
2022/11/17 03:33:07;;;;;;;3.63;2.70;;;;;;;;;;6149669;23;20104;-59
2022/11/17 03:35:42;;;;;;;3.50;2.13;;;;;;;;;;6162002;23;20035;-63
2022/11/17 03:38:18;;;;;;;3.63;2.40;;;;;;;;;;6179744;23;20025;-63
2022/11/17 03:40:47;;;;;;;4.47;2.58;;;;;;;;;;6179004;23;20530;-63
2022/11/17 03:43:21;;;;;;;5.13;2.60;;;;;;;;;;6179553;23;20119;-63
2022/11/17 03:45:49;;;;;;;2.80;2.13;;;;;;;;;;6178650;23;20017;-63
2022/11/17 03:48:26;;;;;;;3.17;2.50;;;;;;;;;;6180176;23;20112;-63
2022/11/17 03:50:58;;;;;;;3.60;2.40;;;;;;;;;;6178832;23;20031;-52
2022/11/17 03:53:32;;;;;;;3.15;2.03;;;;;;;;;;6179308;23;20358;-52
2022/11/17 03:56:07;;;;;;;2.08;1.67;;;;;;;;;;6179885;23;20029;-52
2022/11/17 03:58:46;;;;;;;2.28;1.77;;;;;;;;;;6178217;23;20033;-56
2022/11/17 04:01:14;;;;;;;2.67;2.15;;;;;;;;;;6179039;23;20017;-53
2022/11/17 04:03:48;;;;;;;2.95;2.08;;;;;;;;;;6180238;23;20021;-53
2022/11/17 04:06:15;;;;;;;3.72;2.38;;;;;;;;;;6178968;23;20031;-51
2022/11/17 04:08:42;;;;;;;2.47;1.67;;;;;;;;;;6180653;23;20021;-60
2022/11/17 04:16:54;;;;;;;2.83;1.88;;;;;;;;;;6178806;23;20127;-47
2022/11/17 04:19:21;;;;;;;3.70;2.35;;;;;;;;;;6179484;23;20463;-45
2022/11/17 04:21:55;;;;;;;2.70;1.92;;;;;;;;;;6178265;23;20481;-46
2022/11/17 04:24:22;;;;;;;4.60;2.38;;;;;;;;;;6179317;23;20107;-47
2022/11/17 04:29:42;;;;;;;2.97;2.15;;;;;;;;;;6178951;23;20116;-54
2022/11/17 04:32:16;;;;;;;2.67;1.75;;;;;;;;;;6179185;23;20361;-46
2022/11/17 04:34:56;;;;;;;3.63;2.45;;;;;;;;;;6179809;23;20042;-45
2022/11/17 04:37:30;;;;;;;2.78;2.00;;;;;;;;;;6178425;23;20462;-46
2022/11/17 04:39:57;;;;;;;2.38;1.77;;;;;;;;;;6179086;23;20200;-49
2022/11/17 04:42:25;;;;;;;2.53;1.90;;;;;;;;;;6178435;23;20729;-46
2022/11/17 04:44:59;;;;;;;2.92;1.60;;;;;;;;;;6178750;23;20032;-49
2022/11/17 04:47:26;;;;;;;2.10;1.60;;;;;;;;;;6178569;23;20758;-49
2022/11/17 04:50:00;;;;;;;5.68;2.42;;;;;;;;;;6179408;23;20047;-56
2022/11/17 04:52:27;;;;;;;2.42;1.80;;;;;;;;;;6177346;23;20029;-53
2022/11/17 04:54:56;;;;;;;3.25;1.88;;;;;;;;;;6179007;23;20021;-56
2022/11/17 04:57:30;;;;;;;2.95;1.80;;;;;;;;;;6178410;23;20037;-55
2022/11/17 04:59:57;;;;;;;5.57;2.00;;;;;;;;;;6178888;23;20027;-56
2022/11/17 05:02:31;;;;;;;4.88;2.05;;;;;;;;;;6178513;23;20031;-52
2022/11/17 05:04:58;;;;;;;3.70;2.08;;;;;;;;;;6178141;23;20474;-54
2022/11/17 05:07:26;;;;;;;3.38;2.05;;;;;;;;;;6178090;23;20494;-48
2022/11/17 05:10:00;;;;;;;2.80;1.95;;;;;;;;;;6180261;23;20471;-52
2022/11/17 05:17:03;;;;;;;3.03;1.88;;;;;;;;;;6127000;23;20062;-55
2022/11/17 05:18:18;;;;;;;9.13;2.00;;;;;;;;;;6180356;23;20029;-55
2022/11/17 05:20:45;;;;;;;2.72;2.00;;;;;;;;;;6177288;23;20021;-52
2022/11/17 05:26:05;;;;;;;2.47;1.77;;;;;;;;;;6177824;23;20520;-47
2022/11/17 05:28:39;;;;;;;3.33;2.10;;;;;;;;;;6178655;23;20128;-53
2022/11/17 05:31:06;;;;;;;5.40;2.30;;;;;;;;;;6177618;23;20021;-53
2022/11/17 05:33:40;;;;;;;3.25;2.00;;;;;;;;;;6177822;23;20032;-56
2022/11/17 05:36:13;;;;;;;3.05;2.03;;;;;;;;;;6178638;23;20028;-55
2022/11/17 05:38:47;;;;;;;5.15;1.95;;;;;;;;;;6179328;23;20103;-51
2022/11/17 05:41:15;;;;;;;3.10;1.52;;;;;;;;;;6178052;23;20363;-56
2022/11/17 05:43:43;;;;;;;3.13;1.98;;;;;;;;;;6178617;23;20108;-52
2022/11/17 05:46:18;;;;;;;3.78;1.70;;;;;;;;;;6174544;23;20486;-65
2022/11/17 05:48:47;;;;;;;2.92;1.50;;;;;;;;;;6176464;23;20101;-45
2022/11/17 05:51:22;;;;;;;3.25;1.88;;;;;;;;;;6177728;23;20025;-47
2022/11/17 05:53:50;;;;;;;2.42;1.67;;;;;;;;;;6176086;23;20487;-48
2022/11/17 05:56:17;;;;;;;;;;;;;;;;;;6177420;23;20060;-48
2022/11/17 05:58:53;;;;;;;2.78;1.63;;;;;;;;;;6174717;23;20389;-49
2022/11/17 06:01:21;;;;;;;2.63;1.90;;;;;;;;;;6177666;23;20482;-47
2022/11/17 06:03:57;;;;;;;2.22;1.60;;;;;;;;;;6178381;23;20104;-62
2022/11/17 06:06:24;;;;;;;3.13;1.90;;;;;;;;;;6178385;23;20087;-65
2022/11/17 06:08:58;;;;;;;2.53;1.98;;;;;;;;;;6179571;23;20021;-65
2022/11/17 06:11:25;;;;;;;2.47;1.60;;;;;;;;;;6179317;23;20048;-65
2022/11/17 06:13:52;;;;;;;4.70;2.22;;;;;;;;;;6178444;23;20435;-65
2022/11/17 06:16:29;;;;;;;2.75;1.77;;;;;;;;;;6178238;23;20487;-65
2022/11/17 06:19:00;;;;;;;3.45;2.03;;;;;;;;;;6178884;23;20056;-65
2022/11/17 06:21:34;;;;;;;3.33;1.92;;;;;;;;;;6178911;23;20406;-52
2022/11/17 06:24:21;;;;;;;2.30;1.98;;;;;;;;;;6178642;23;20025;-52
2022/11/17 06:26:55;;;;;;;2.55;1.80;;;;;;;;;;6178734;23;20068;-55
2022/11/17 06:29:22;;;;;;;6.13;2.20;;;;;;;;;;6178619;23;20029;-55
2022/11/17 06:31:57;;;;;;;4.70;2.17;;;;;;;;;;6178219;23;20017;-54
2022/11/17 06:34:24;;;;;;;2.35;1.83;;;;;;;;;;6178878;23;20607;-52
2022/11/17 06:36:52;;;;;;;2.78;2.00;;;;;;;;;;6177325;23;20782;-51
2022/11/17 06:39:33;;;;;;;2.72;1.83;;;;;;;;;;6178390;23;20025;-51
2022/11/17 06:42:00;;;;;;;3.60;2.10;;;;;;;;;;6178620;23;20412;-58
2022/11/17 06:44:34;;;;;;;4.15;1.95;;;;;;;;;;6178945;23;20031;-59
2022/11/17 06:47:01;;;;;;;2.25;1.75;;;;;;;;;;6178795;23;20021;-58
2022/11/17 06:49:28;;;;;;;2.05;1.15;;;;;;;;;;6179077;23;20055;-59
2022/11/17 06:52:02;;;;;;;4.57;2.13;;;;;;;;;;6178351;23;20017;-59
2022/11/17 06:54:36;;;;;;;2.25;1.08;;;;;;;;;;6177577;23;20430;-58
2022/11/17 06:57:10;;;;;;;3.28;2.05;;;;;;;;;;6177901;23;20052;-59
2022/11/17 06:59:37;;;;;;;3.15;1.73;;;;;;;;;;6179342;23;20028;-48
2022/11/17 07:02:11;;;;;;;3.05;1.63;;;;;;;;;;6178642;23;20520;-53
2022/11/17 07:04:38;;;;;;;2.80;1.75;;;;;;;;;;6178548;23;20043;-54
2022/11/17 07:07:05;;;;;;;2.50;1.90;;;;;;;;;;6178366;23;20031;-54
2022/11/17 07:09:39;;;;;;;2.40;1.63;;;;;;;;;;6179098;23;20056;-58
2022/11/17 07:12:06;;;;;;;2.50;1.90;;;;;;;;;;6179132;23;20091;-56
2022/11/17 07:14:40;;;;;;;4.03;1.85;;;;;;;;;;6178871;23;20092;-56
2022/11/17 07:17:07;;;;;;;3.28;1.98;;;;;;;;;;6179002;23;20100;-56
2022/11/17 07:19:34;;;;;;;2.40;2.00;;;;;;;;;;6178883;23;20096;-64
2022/11/17 07:22:08;;;;;;;3.67;2.03;;;;;;;;;;6179043;23;20025;-56
2022/11/17 07:24:35;;;;;;;2.78;1.98;;;;;;;;;;6177153;23;20052;-53
2022/11/17 07:27:03;;;;;;;2.22;1.63;;;;;;;;;;6178273;23;20051;-55
2022/11/17 07:29:37;;;;;;;2.75;1.63;;;;;;;;;;6180099;23;20128;-51
2022/11/17 07:32:04;;;;;;;2.47;1.70;;;;;;;;;;6178841;23;20017;-55
2022/11/17 07:34:38;;;;;;;2.25;1.85;;;;;;;;;;6179800;23;20064;-55
2022/11/17 07:37:12;;;;;;;2.67;1.88;;;;;;;;;;6178088;23;20035;-55
2022/11/17 07:39:46;;;;;;;1.70;1.27;;;;;;;;;;6180390;23;20104;-58
2022/11/17 07:42:13;;;;;;;2.88;1.70;;;;;;;;;;6180204;23;20116;-54
2022/11/17 07:44:40;;;;;;;3.13;1.90;;;;;;;;;;6179077;23;20099;-55
2022/11/17 07:47:14;;;;;;;2.90;1.88;;;;;;;;;;6180403;23;20422;-55
2022/11/17 07:49:41;;;;;;;;;;;;;;;;;;6179140;23;20100;-53
2022/11/17 07:52:15;;;;;;;1.60;1.27;;;;;;;;;;6180309;23;20356;-53
2022/11/17 07:54:42;;;;;;;2.30;1.85;;;;;;;;;;6154584;23;20156;-54
2022/11/17 07:57:09;;;;;;;2.22;1.73;;;;;;;;;;6179975;23;20100;-63
2022/11/17 07:59:43;;;;;;;4.28;1.55;;;;;;;;;;6180087;23;20032;-59
2022/11/17 08:02:10;;;;;;;2.13;1.80;;;;;;;;;;6179966;23;20465;-46
2022/11/17 08:04:44;;;;;;;2.80;1.60;;;;;;;;;;6179013;23;20415;-45
2022/11/17 08:07:11;;;;;;;2.22;1.70;;;;;;;;;;6180620;23;20020;-45
2022/11/17 08:09:39;;;;;;;2.42;1.40;;;;;;;;;;6179428;23;20052;-46
2022/11/17 08:12:13;;;;;;;4.53;1.80;;;;;;;;;;6179103;23;20538;-45
2022/11/17 08:14:40;;;;;;;2.10;1.58;;;;;;;;;;6179838;23;20493;-48
2022/11/17 08:17:14;;;;;;;1.98;1.50;;;;;;;;;;6179939;23;20530;-60
2022/11/17 08:19:41;;;;;;;2.65;1.80;;;;;;;;;;6178878;23;20101;-59
2022/11/17 08:22:08;;;;;;;1.77;1.50;;;;;;;;;;6179944;23;20036;-58
2022/11/17 08:24:42;;;;;;;4.38;1.70;;;;;;;;;;6179637;23;20032;-58
2022/11/17 08:27:09;;;;;;;2.33;1.73;;;;;;;;;;6179073;23;20023;-60
2022/11/17 08:29:43;;;;;;;2.33;1.58;;;;;;;;;;6178582;23;20700;-58
2022/11/17 08:32:10;;;;;;;2.13;1.58;;;;;;;;;;6179711;23;20021;-60
2022/11/17 08:34:44;;;;;;;1.77;1.40;;;;;;;;;;6178570;23;20025;-55
2022/11/17 08:37:18;;;;;;;1.65;1.45;;;;;;;;;;6178727;23;20097;-61
2022/11/17 08:39:52;;;;;;;2.42;1.50;;;;;;;;;;6176645;23;20096;-61
2022/11/17 08:42:19;;;;;;;2.97;1.50;;;;;;;;;;6178886;23;20028;-60
2022/11/17 08:44:46;;;;;;;3.22;1.83;;;;;;;;;;6180541;23;20092;-61
2022/11/17 08:47:20;;;;;;;2.22;1.45;;;;;;;;;;6179406;23;20461;-61
2022/11/17 08:49:47;;;;;;;4.53;1.38;;;;;;;;;;6179131;23;20017;-60
2022/11/17 08:52:21;;;;;;;2.80;1.70;;;;;;;;;;6178875;23;20100;-61
2022/11/17 08:54:51;;;;;;;2.47;1.60;;;;;;;;;;6177680;23;20064;-60
2022/11/17 08:57:20;;;;;;;2.30;1.30;;;;;;;;;;6179102;23;20087;-57
2022/11/17 08:59:54;;;;;;;2.10;1.58;;;;;;;;;;6180006;23;20095;-46
2022/11/17 09:02:21;;;;;;;2.28;1.40;;;;;;;;;;6179084;23;20430;-45
2022/11/17 09:04:55;;;;;;;2.78;1.50;;;;;;;;;;6178539;23;20035;-51
2022/11/17 09:07:22;;;;;;;2.40;1.60;;;;;;;;;;6180329;23;20400;-47
2022/11/17 09:10:01;;;;;;;2.00;1.70;;;;;;;;;;6178710;23;20358;-48
2022/11/17 09:12:28;;;;;;;2.80;1.77;;;;;;;;;;6151308;23;20133;-47
2022/11/17 09:14:55;;;;;;;1.85;1.60;;;;;;;;;;6179714;23;20027;-61
2022/11/17 09:17:30;;;;;;;4.95;2.28;;;;;;;;;;6179562;23;20025;-53
2022/11/17 09:19:57;;;;;;;1.63;1.38;;;;;;;;;;6179451;23;20056;-54
2022/11/17 09:22:31;;;;;;;1.25;1.13;;;;;;;;;;6179317;23;20021;-54
2022/11/17 09:24:58;;;;;;;2.90;1.70;;;;;;;;;;6178843;23;20060;-56
2022/11/17 09:27:25;;;;;;;1.17;0.90;;;;;;;;;;6179943;23;20720;-54
2022/11/17 09:29:59;;;;;;;1.67;1.58;;;;;;;;;;6178577;23;20104;-54
2022/11/17 09:32:27;;;;;;;2.30;1.30;;;;;;;;;;6179448;23;20020;-48
2022/11/17 09:35:05;;;;;;;2.08;1.35;;;;;;;;;;6178484;23;20095;-54
2022/11/17 09:37:38;;;;;;;2.45;1.05;;;;;;;;;;6179385;23;20541;-52
2022/11/17 09:40:17;;;;;;;1.38;1.08;;;;;;;;;;6177819;23;20044;-56
2022/11/17 09:42:45;;;;;;;3.03;1.33;;;;;;;;;;6178937;23;20024;-53
2022/11/17 09:45:45;;;;;;;1.33;1.00;;;;;;;;;;6179090;23;20031;-55
2022/11/17 09:48:21;;;;;;;2.42;1.13;;;;;;;;;;6174203;23;20027;-52
2022/11/17 09:51:12;;;;;;;1.20;1.00;;;;;;;;;;6179069;23;20036;-46
2022/11/17 09:53:39;;;;;;;1.10;1.00;;;;;;;;;;6178620;23;20121;-66
2022/11/17 09:56:13;;;;;;;2.10;1.40;;;;;;;;;;6178710;23;20061;-60
2022/11/17 09:58:52;;;;;;;1.55;0.90;;;;;;;;;;6177600;23;20035;-57
2022/11/17 10:01:27;;;;;;;0.85;0.57;;;;;;;;;;6178826;23;20063;-59
2022/11/17 10:03:55;;;;;;;1.27;1.00;;;;;;;;;;6178681;23;20502;-58
2022/11/17 10:06:25;;;;;;;0.70;0.70;;;;;;;;;;6178755;23;20025;-59
2022/11/17 10:09:01;;;;;;;1.35;1.10;;;;;;;;;;6177952;23;20024;-59
2022/11/17 10:11:34;;;;;;;1.25;0.75;;;;;;;;;;6178186;23;20057;-49
2022/11/17 10:14:07;;;;;;;3.20;0.98;;;;;;;;;;6179292;23;20021;-57
2022/11/17 10:16:35;;;;;;;0.82;0.73;;;;;;;;;;6178752;23;20028;-56
2022/11/17 10:19:32;;;;;;;1.55;1.15;;;;;;;;;;6179031;23;20068;-54
2022/11/17 10:22:06;;;;;;;1.02;0.88;;;;;;;;;;6166121;23;20060;-56
2022/11/17 10:24:41;;;;;;;0.63;0.63;;;;;;;;;;6177231;23;20459;-58
2022/11/17 10:27:15;;;;;;;3.20;0.95;;;;;;;;;;6178706;23;20522;-55
2022/11/17 10:29:55;;;;;;;0.93;0.85;;;;;;;;;;6179137;23;20017;-59
2022/11/17 10:32:30;;;;;;;1.00;0.90;;;;;;;;;;6177253;23;20120;-54
2022/11/17 10:35:15;;;;;;;2.78;0.73;;;;;;;;;;6177710;23;20032;-65
2022/11/17 10:38:01;;;;;;;1.25;1.08;;;;;;;;;;6177916;23;20209;-65
2022/11/17 10:40:32;;;;;;;3.35;0.73;;;;;;;;;;6177150;23;20028;-65
2022/11/17 10:43:12;;;;;;;1.33;0.85;;;;;;;;;;6177294;23;20506;-65
2022/11/17 10:45:51;;;;;;;1.35;1.10;;;;;;;;;;6177974;23;20021;-65
2022/11/17 10:48:29;;;;;;;1.70;1.00;;;;;;;;;;6178234;23;20043;-60
2022/11/17 10:51:00;;;;;;;2.08;1.02;;;;;;;;;;6179008;23;20475;-54
2022/11/17 10:53:35;;;;;;;0.77;0.67;;;;;;;;;;6177527;23;20456;-63
2022/11/17 10:56:14;;;;;;;1.45;0.82;;;;;;;;;;6179177;23;20021;-63
2022/11/17 10:58:56;;;;;;;2.40;1.15;;;;;;;;;;6177314;23;20104;-63
2022/11/17 11:01:31;;;;;;;1.52;0.93;;;;;;;;;;6178130;23;20021;-63
2022/11/17 11:04:05;;;;;;;2.47;0.80;;;;;;;;;;6178128;23;20350;-63
2022/11/17 11:06:34;;;;;;;1.25;1.10;;;;;;;;;;6179827;23;20081;-63
2022/11/17 11:09:17;;;;;;;0.88;0.88;;;;;;;;;;6180313;23;20017;-50
2022/11/17 11:11:55;;;;;;;0.95;0.85;;;;;;;;;;6179529;23;20057;-47
2022/11/17 11:14:32;;;;;;;0.95;0.80;;;;;;;;;;6179547;23;20096;-46
2022/11/17 11:17:13;;;;;;;0.80;0.50;;;;;;;;;;6179384;23;20100;-44
2022/11/17 11:19:41;;;;;;;0.77;0.77;;;;;;;;;;6179967;23;20561;-48
2022/11/17 11:22:15;;;;;;;1.00;0.90;;;;;;;;;;6180722;23;20020;-47
2022/11/17 11:24:53;;;;;;;0.95;0.73;;;;;;;;;;6179048;23;20029;-46
2022/11/17 11:27:49;;;;;;;3.50;1.02;;;;;;;;;;6154944;23;20028;-67
2022/11/17 11:30:17;;;;;;;1.98;0.90;;;;;;;;;;6180955;23;20100;-45
2022/11/17 11:32:51;;;;;;;1.17;1.08;;;;;;;;;;6179648;23;20096;-48
2022/11/17 11:35:50;;;;;;;1.42;1.08;;;;;;;;;;6179649;23;20035;-48
2022/11/17 11:38:33;;;;;;;2.35;0.93;;;;;;;;;;6179427;23;20029;-48
2022/11/17 11:41:07;;;;;;;1.20;1.10;;;;;;;;;;6155351;23;20091;-48
2022/11/17 11:44:03;;;;;;;1.00;0.90;;;;;;;;;;6180197;23;20540;-46
2022/11/17 11:47:00;;;;;;;2.97;1.00;;;;;;;;;;6164536;23;20027;-59
2022/11/17 11:49:32;;;;;;;0.93;0.70;;;;;;;;;;6180132;23;20489;-57
2022/11/17 11:52:09;;;;;;;1.05;0.95;;;;;;;;;;6179443;23;20060;-59
2022/11/17 11:54:43;;;;;;;2.00;0.90;;;;;;;;;;6178658;23;20418;-58
2022/11/17 11:57:18;;;;;;;2.92;1.13;;;;;;;;;;6180285;23;20028;-59
2022/11/17 11:59:49;;;;;;;1.60;1.10;;;;;;;;;;6179463;23;20105;-56
2022/11/17 12:02:38;;;;;;;1.00;0.90;;;;;;;;;;6180293;23;20025;-59
2022/11/17 12:05:28;;;;;;;2.70;1.20;;;;;;;;;;6180593;23;20017;-45
2022/11/17 12:08:14;;;;;;;1.88;0.85;;;;;;;;;;6179550;23;20103;-58
2022/11/17 12:10:49;;;;;;;0.98;0.80;;;;;;;;;;6178821;23;20036;-57
2022/11/17 12:13:23;;;;;;;1.00;0.70;;;;;;;;;;6179977;23;20477;-56
2022/11/17 12:15:52;;;;;;;3.20;0.88;;;;;;;;;;6178780;23;20021;-57
2022/11/17 12:18:33;;;;;;;1.63;0.88;;;;;;;;;;6180256;23;20095;-59
2022/11/17 12:21:02;;;;;;;0.70;0.70;;;;;;;;;;6179202;23;20128;-58
2022/11/17 12:23:41;;;;;;;0.43;0.43;;;;;;;;;;6179853;23;20100;-60
2022/11/17 12:26:19;;;;;;;0.50;0.50;;;;;;;;;;6179228;23;20028;-63
2022/11/17 12:29:11;;;;;;;2.58;0.50;;;;;;;;;;6179550;23;20017;-60
2022/11/17 12:31:42;;;;;;;0.45;0.45;;;;;;;;;;6179616;23;20039;-60
2022/11/17 12:34:20;;;;;;;0.70;0.70;;;;;;;;;;6178947;23;20027;-57
2022/11/17 12:37:24;;;;;;;0.60;0.60;;;;;;;;;;6179021;23;20044;-58
2022/11/17 12:39:58;;;;;;;;;;;;;;;;;;6180708;23;20108;-60
2022/11/17 12:42:32;;;;;;;0.70;0.70;;;;;;;;;;6179178;23;19956;-59
2022/11/17 12:45:10;;;;;;;1.00;0.80;;;;;;;;;;6179446;23;20372;-52
2022/11/17 12:47:44;;;;;;;0.70;0.70;;;;;;;;;;6179049;23;20533;-65
2022/11/17 12:50:49;;;;;;;0.70;0.70;;;;;;;;;;6179640;23;20191;-65
2022/11/17 12:53:21;;;;;;;0.60;0.52;;;;;;;;;;6176178;23;20481;-64
2022/11/17 12:55:55;;;;;;;2.97;0.80;;;;;;;;;;6179798;23;20064;-65
2022/11/17 12:58:42;;;;;;;0.73;0.73;;;;;;;;;;6178719;23;20035;-65
2022/11/17 13:01:22;;;;;;;0.60;0.60;;;;;;;;;;6170441;23;20021;-65
2022/11/17 13:04:25;;;;;;;0.40;0.40;;;;;;;;;;6179682;23;20032;-65
2022/11/17 13:07:06;;;;;;;1.13;0.90;;;;;;;;;;6110741;23;20562;-60
2022/11/17 13:09:35;;;;;;;0.73;0.73;;;;;;;;;;6173736;23;20324;-60
2022/11/17 13:12:10;;;;;;;1.58;0.98;;;;;;;;;;6180235;23;20043;-59
2022/11/17 13:14:51;;;;;;;2.63;0.90;;;;;;;;;;6178932;23;20043;-59
2022/11/17 13:17:28;;;;;;;0.93;0.90;;;;;;;;;;6179066;23;20386;-56
2022/11/17 13:20:03;;;;;;;1.45;1.00;;;;;;;;;;6178954;23;20268;-59
2022/11/17 13:22:37;;;;;;;0.93;0.82;;;;;;;;;;6154500;23;20027;-55
2022/11/17 13:25:12;;;;;;;1.58;1.05;;;;;;;;;;6178804;23;20514;-56
2022/11/17 13:27:46;;;;;;;2.05;1.15;;;;;;;;;;6177709;23;20021;-58
2022/11/17 13:30:23;;;;;;;1.30;0.88;;;;;;;;;;6178720;23;20459;-56
2022/11/17 13:32:59;;;;;;;1.70;1.05;;;;;;;;;;6178662;23;20021;-55
2022/11/17 13:35:45;;;;;;;0.98;0.90;;;;;;;;;;6179518;23;20031;-56
2022/11/17 13:38:19;;;;;;;0.90;0.82;;;;;;;;;;6149275;23;20464;-58
2022/11/17 13:40:53;;;;;;;1.13;0.98;;;;;;;;;;6149570;23;20021;-63
2022/11/17 13:43:21;;;;;;;2.53;1.23;;;;;;;;;;6148359;23;20483;-56
2022/11/17 13:45:55;;;;;;;1.38;1.17;;;;;;;;;;6148699;23;20022;-57
2022/11/17 13:48:38;;;;;;;1.45;1.27;;;;;;;;;;6149300;23;20025;-55
2022/11/17 13:51:27;;;;;;;1.83;1.17;;;;;;;;;;6148387;23;20024;-59
2022/11/17 13:54:14;;;;;;;1.65;1.20;;;;;;;;;;6148684;23;20030;-56
2022/11/17 13:56:50;;;;;;;2.88;1.20;;;;;;;;;;6149487;23;20028;-57
2022/11/17 13:59:20;;;;;;;1.77;1.45;;;;;;;;;;6121973;23;20681;-57
2022/11/17 14:01:47;;;;;;;1.25;0.93;;;;;;;;;;6148860;23;20060;-54
2022/11/17 14:04:22;;;;;;;0.95;0.80;;;;;;;;;;6149945;23;20027;-56
2022/11/17 14:07:00;;;;;;;0.73;0.73;;;;;;;;;;6148326;23;20025;-51
2022/11/17 14:09:34;;;;;;;1.65;1.40;;;;;;;;;;6149419;23;20080;-53
2022/11/17 14:12:08;;;;;;;1.40;1.10;;;;;;;;;;6149216;23;20028;-52
2022/11/17 14:14:43;;;;;;;1.15;0.90;;;;;;;;;;6148281;23;20032;-54
2022/11/17 14:17:18;;;;;;;1.23;1.10;;;;;;;;;;6148061;23;20018;-51
2022/11/17 14:19:52;;;;;;;1.55;1.30;;;;;;;;;;6148946;23;20534;-55
2022/11/17 14:22:21;;;;;;;1.52;1.30;;;;;;;;;;6147935;23;20582;-63
2022/11/17 14:24:58;;;;;;;2.40;1.25;;;;;;;;;;6149382;23;20486;-62
2022/11/17 14:27:35;;;;;;;0.90;0.90;;;;;;;;;;6148479;23;20464;-63
2022/11/17 14:30:11;;;;;;;1.50;1.35;;;;;;;;;;6148993;23;20101;-63
2022/11/17 14:32:39;;;;;;;1.35;1.00;;;;;;;;;;6148178;23;20301;-63
2022/11/17 14:35:06;;;;;;;1.45;1.30;;;;;;;;;;6149102;23;20080;-63
2022/11/17 14:37:47;;;;;;;1.35;1.23;;;;;;;;;;6171716;23;20410;-55
2022/11/17 14:40:15;;;;;;;1.55;1.30;;;;;;;;;;6179450;23;20108;-61
2022/11/17 14:42:49;;;;;;;1.20;1.10;;;;;;;;;;6180745;23;20063;-54
2022/11/17 14:45:16;;;;;;;1.27;1.08;;;;;;;;;;6180693;23;20021;-57
2022/11/17 14:47:43;;;;;;;1.10;1.00;;;;;;;;;;6179837;23;20096;-55
2022/11/17 14:50:17;;;;;;;0.85;0.80;;;;;;;;;;6180127;23;20025;-56
2022/11/17 14:52:45;;;;;;;3.08;1.00;;;;;;;;;;6179856;23;20395;-57
2022/11/17 14:55:20;;;;;;;0.80;0.80;;;;;;;;;;6180616;23;20029;-53
2022/11/17 14:57:48;;;;;;;1.75;1.20;;;;;;;;;;6153675;23;20021;-52
2022/11/17 15:00:16;;;;;;;1.27;1.10;;;;;;;;;;6179579;23;20028;-57
2022/11/17 15:02:50;;;;;;;2.08;1.10;;;;;;;;;;6180407;23;20025;-53
2022/11/17 15:05:17;;;;;;;2.72;1.33;;;;;;;;;;6181000;23;20047;-57
2022/11/17 15:07:44;;;;;;;2.05;1.48;;;;;;;;;;6179388;23;20466;-53
2022/11/17 15:10:18;;;;;;;1.50;1.17;;;;;;;;;;6180563;23;20029;-54
2022/11/17 15:12:45;;;;;;;3.00;1.50;;;;;;;;;;6179981;23;20323;-55
2022/11/17 15:15:19;;;;;;;2.53;1.50;;;;;;;;;;6181785;23;20029;-60
2022/11/17 15:17:46;;;;;;;1.33;1.20;;;;;;;;;;6178537;23;20027;-54
2022/11/17 15:20:13;;;;;;;1.80;0.93;;;;;;;;;;6180279;23;20029;-65
2022/11/17 15:22:48;;;;;;;2.38;1.20;;;;;;;;;;6178808;23;20021;-65
2022/11/17 15:25:16;;;;;;;2.40;1.60;;;;;;;;;;6180318;23;20494;-65
2022/11/17 15:27:50;;;;;;;2.78;1.50;;;;;;;;;;6179428;23;20036;-65
2022/11/17 15:30:17;;;;;;;2.08;1.67;;;;;;;;;;6180224;23;20025;-64
2022/11/17 15:32:44;;;;;;;2.50;1.70;;;;;;;;;;6178610;23;20016;-65
2022/11/17 15:35:18;;;;;;;1.92;1.33;;;;;;;;;;6179594;23;20380;-65
2022/11/17 15:37:52;;;;;;;3.03;1.80;;;;;;;;;;6177854;23;20534;-57
2022/11/17 15:40:26;;;;;;;2.50;1.85;;;;;;;;;;6155069;23;20029;-56
2022/11/17 15:42:53;;;;;;;2.50;2.05;;;;;;;;;;6179322;23;20588;-58
2022/11/17 15:45:27;;;;;;;4.32;2.00;;;;;;;;;;6180647;23;20021;-60
2022/11/17 15:47:56;;;;;;;2.58;1.42;;;;;;;;;;6179011;23;20032;-57
2022/11/17 15:50:23;;;;;;;3.00;1.90;;;;;;;;;;6179676;23;20051;-58